CDT,Max TemperatureF,Mean TemperatureF,Min TemperatureF,Max Dew PointF,MeanDew PointF,Min DewpointF,Max Humidity, Mean Humidity, Min Humidity, Max Sea Level PressureIn, Mean Sea Level PressureIn, Min Sea Level PressureIn, Max VisibilityMiles, Mean VisibilityMiles, Min VisibilityMiles, Max Wind SpeedMPH, Mean Wind SpeedMPH, Max Gust SpeedMPH,PrecipitationIn, CloudCover, Events, WindDirDegrees
2011-10-1,60,47,34,38,35,31,100,67,33,30.40,30.32,30.27,10,10,9,10,5,15,0.00,0,,349
2011-10-2,68,49,30,44,36,28,100,65,30,30.32,30.26,30.18,10,9,4,9,1,13,0.00,0,,295
2011-10-3,75,58,40,49,45,39,100,68,36,30.26,30.22,30.18,10,10,9,12,2,16,0.00,0,,25
2011-10-4,76,58,40,50,45,39,100,67,33,30.31,30.25,30.19,10,9,3,8,2,10,0.00,0,Fog,178
2011-10-5,80,61,42,50,46,42,100,65,30,30.25,30.20,30.16,10,9,4,14,3,16,0.00,0,,169
2011-10-6,80,63,45,52,49,45,100,67,33,30.25,30.20,30.17,10,8,3,16,6,20,0.00,0,Fog,160
2011-10-7,82,70,57,55,52,49,80,56,31,30.25,30.19,30.14,10,10,10,23,11,31,0.00,0,,180
2011-10-8,81,69,56,55,52,48,78,56,33,30.27,30.22,30.17,10,10,10,16,8,22,0.00,0,,186
2011-10-9,78,64,49,55,51,45,93,66,39,30.34,30.28,30.23,10,10,10,14,4,16,0.00,0,,179
2011-10-10,76,61,45,52,49,45,100,69,38,30.23,30.12,30.02,10,8,4,14,5,37,0.00,0,,173
2011-10-11,76,66,56,60,55,49,93,73,53,30.01,29.96,29.89,10,10,6,18,5,21,T,4,Rain,186
2011-10-12,75,63,51,59,56,51,100,75,49,29.89,29.77,29.63,10,5,0,17,4,21,0.42,6,Fog-Rain,86
2011-10-13,65,58,51,58,55,44,93,79,64,29.61,29.54,29.48,10,6,1,18,7,29,0.57,7,Rain,234
2011-10-14,59,53,46,44,38,34,86,63,40,29.67,29.59,29.53,10,10,10,23,11,36,0.00,2,,297
2011-10-15,60,53,45,41,36,32,71,53,35,29.87,29.78,29.68,10,10,10,21,9,31,0.02,3,Rain,289
2011-10-16,60,54,48,42,35,28,77,54,31,29.83,29.80,29.78,10,10,10,20,7,31,T,4,,290
2011-10-17,58,51,43,31,30,27,62,46,30,29.84,29.81,29.77,10,10,10,17,7,28,0.00,0,,282
2011-10-18,53,43,33,38,34,28,82,66,50,29.92,29.87,29.81,10,10,10,15,7,21,T,4,Rain,341
2011-10-19,48,43,38,38,35,32,85,73,60,29.93,29.86,29.76,10,10,9,28,16,37,T,7,,7
2011-10-20,50,45,40,34,32,31,70,61,52,29.93,29.76,29.68,10,10,10,24,13,35,0.00,7,,339
2011-10-21,57,45,32,33,31,29,89,62,35,30.09,30.04,29.94,10,10,10,12,3,28,0.00,0,,304
2011-10-22,65,49,33,38,35,31,89,63,37,30.06,30.03,30.01,10,10,8,9,2,13,0.00,0,,326
2011-10-23,63,47,31,50,41,30,96,71,46,30.00,29.91,29.81,10,8,2,25,4,37,0.25,5,Rain-Thunderstorm,227
2011-10-24,62,51,40,43,40,34,96,66,36,30.08,30.03,29.91,10,10,10,14,5,20,0.00,1,,258
2011-10-25,65,55,45,52,45,40,93,75,56,30.05,29.87,29.74,10,9,6,22,9,31,0.03,6,Rain,81
2011-10-26,50,44,38,43,37,32,93,75,56,30.04,29.98,29.87,10,10,4,18,8,24,T,6,,360
2011-10-27,51,42,32,37,34,30,92,71,50,30.16,30.06,30.01,10,10,5,13,2,18,0.01,4,Rain,336
2011-10-28,54,41,27,38,31,24,100,66,32,30.17,30.08,30.01,10,6,0,15,3,21,0.02,3,Fog-Rain,207
2011-10-29,53,40,27,33,28,23,100,65,29,30.11,30.05,30.00,10,7,0,12,3,16,0.00,1,Fog,289
2011-10-30,51,45,38,43,35,25,83,64,45,30.09,29.93,29.83,10,10,4,21,9,25,0.03,7,Rain,184
2011-10-31,46,41,35,38,36,34,85,73,60,30.12,30.02,29.92,10,10,7,9,3,13,0.00,7,,256